Time;durP1;ratioP1;P1;durP2;ratioP2;P2;SDS_P1;SDS_P2;PMS_P1;PMS_P2;Temp;Humidity;BMP_temperature;BMP_pressure;BME280_temperature;BME280_humidity;BME280_pressure;Samples;Min_cycle;Max_cycle;Signal;HPM_P1;HPM_P2
2022/03/31 00:01:42;;;;;;;4.47;0.90;;;4.30;99.90;;;;;;5114893;28;20043;-68
2022/03/31 00:04:08;;;;;;;4.28;0.80;;;4.20;99.90;;;;;;5087274;27;20035;-68
2022/03/31 00:06:34;;;;;;;3.53;0.82;;;4.20;99.90;;;;;;5129436;27;20038;-69
2022/03/31 00:08:59;;;;;;;3.63;0.90;;;4.10;99.90;;;;;;5113154;27;20492;-68
2022/03/31 00:11:25;;;;;;;4.25;0.63;;;4.10;99.90;;;;;;5131269;27;20050;-69
2022/03/31 00:13:51;;;;;;;5.05;0.90;;;4.00;99.90;;;;;;5098887;28;20082;-70
2022/03/31 00:16:16;;;;;;;1.03;0.40;;;4.00;99.90;;;;;;5127211;27;20422;-68
2022/03/31 00:18:43;;;;;;;5.37;0.90;;;3.90;99.90;;;;;;5109721;28;20319;-68
2022/03/31 00:21:08;;;;;;;3.28;1.00;;;3.90;99.90;;;;;;5127716;28;20376;-67
2022/03/31 00:23:37;;;;;;;2.65;0.70;;;3.80;99.90;;;;;;5129832;28;20114;-68
2022/03/31 00:26:03;;;;;;;1.83;0.65;;;3.80;99.90;;;;;;5126492;28;20045;-69
2022/03/31 00:28:29;;;;;;;1.65;0.50;;;3.80;99.90;;;;;;5109814;28;20399;-69
2022/03/31 00:30:55;;;;;;;2.72;0.82;;;3.80;99.90;;;;;;5113163;28;20046;-69
2022/03/31 00:33:21;;;;;;;0.68;0.40;;;3.80;99.90;;;;;;5111107;27;20530;-69
2022/03/31 00:35:46;;;;;;;2.25;0.55;;;3.80;99.90;;;;;;5121005;27;20084;-69
2022/03/31 00:38:12;;;;;;;3.00;0.80;;;3.80;99.90;;;;;;5133196;27;20080;-69
2022/03/31 00:40:38;;;;;;;2.53;0.60;;;3.80;99.90;;;;;;5133055;27;20414;-69
2022/03/31 00:43:04;;;;;;;3.45;0.65;;;3.80;99.90;;;;;;5098845;28;20044;-69
2022/03/31 00:45:34;;;;;;;2.63;0.80;;;3.80;99.90;;;;;;5117590;27;20164;-69
2022/03/31 00:48:01;;;;;;;2.00;0.50;;;3.80;99.90;;;;;;5108770;27;20058;-69
2022/03/31 00:50:28;;;;;;;2.25;0.68;;;3.70;99.90;;;;;;5103732;28;20048;-69
2022/03/31 00:52:54;;;;;;;1.45;0.60;;;3.70;99.90;;;;;;5128703;27;20097;-69
2022/03/31 00:55:20;;;;;;;1.27;0.50;;;3.70;99.90;;;;;;5119108;27;20062;-69
2022/03/31 00:57:47;;;;;;;2.75;0.63;;;3.60;99.90;;;;;;5112180;28;20130;-69
2022/03/31 01:00:17;;;;;;;2.55;0.40;;;3.60;99.90;;;;;;5113808;27;20050;-68
2022/03/31 01:02:44;;;;;;;0.70;0.35;;;3.60;99.90;;;;;;5116557;27;20031;-69
2022/03/31 01:05:11;;;;;;;2.95;0.70;;;3.50;99.90;;;;;;5118120;27;20048;-68
2022/03/31 01:07:38;;;;;;;2.58;0.50;;;3.50;99.90;;;;;;5107230;28;20043;-68
2022/03/31 01:10:05;;;;;;;1.73;0.60;;;3.50;99.90;;;;;;5118909;27;20046;-68
2022/03/31 01:12:31;;;;;;;1.73;0.35;;;3.50;99.90;;;;;;5123719;27;20036;-69
2022/03/31 01:15:08;;;;;;;3.08;0.60;;;3.50;99.90;;;;;;5127201;27;20028;-68
2022/03/31 01:17:39;;;;;;;1.25;0.60;;;3.50;99.90;;;;;;5096544;27;20055;-68
2022/03/31 01:20:08;;;;;;;2.22;0.70;;;3.50;99.90;;;;;;5121644;27;20051;-68
2022/03/31 01:22:34;;;;;;;2.38;0.65;;;3.50;99.90;;;;;;5118410;27;20039;-68
2022/03/31 01:25:02;;;;;;;3.90;1.00;;;3.50;99.90;;;;;;5125447;27;20146;-68
2022/03/31 01:27:28;;;;;;;1.90;1.00;;;3.50;99.90;;;;;;5109474;27;20035;-68
2022/03/31 01:29:55;;;;;;;1.98;1.10;;;3.50;99.90;;;;;;5114768;27;20067;-69
2022/03/31 01:32:21;;;;;;;;;;;3.50;99.90;;;;;;5112939;27;20047;-68
2022/03/31 01:34:47;;;;;;;4.43;1.52;;;3.50;99.90;;;;;;5121015;27;20002;-68
2022/03/31 01:37:13;;;;;;;3.58;1.98;;;3.50;99.90;;;;;;5109124;27;20050;-68
2022/03/31 01:39:40;;;;;;;3.95;1.95;;;3.50;99.90;;;;;;5088341;27;20461;-68
2022/03/31 01:42:05;;;;;;;;;;;3.50;99.90;;;;;;5114562;27;20039;-68
2022/03/31 01:44:31;;;;;;;3.83;2.13;;;3.50;99.90;;;;;;5128447;27;19935;-69
2022/03/31 01:46:57;;;;;;;3.25;2.20;;;3.50;99.90;;;;;;5120898;27;20039;-68
2022/03/31 01:49:23;;;;;;;2.63;1.80;;;3.50;99.90;;;;;;5096813;27;20049;-69
2022/03/31 01:51:48;;;;;;;3.25;1.70;;;3.50;99.90;;;;;;5129699;27;20138;-69
2022/03/31 01:54:14;;;;;;;3.30;2.10;;;3.50;99.90;;;;;;5111815;27;20050;-69
2022/03/31 01:56:44;;;;;;;3.65;2.15;;;3.50;99.90;;;;;;5131386;27;20288;-69
2022/03/31 01:59:11;;;;;;;3.63;2.15;;;3.40;99.90;;;;;;5088567;27;20045;-69
2022/03/31 02:01:37;;;;;;;;;;;3.40;99.90;;;;;;5109526;27;20338;-69
2022/03/31 02:04:02;;;;;;;3.20;2.30;;;3.50;99.90;;;;;;5118710;27;19919;-69
2022/03/31 02:06:29;;;;;;;4.28;2.30;;;3.50;99.90;;;;;;5116889;27;20529;-69
2022/03/31 02:08:56;;;;;;;;;;;3.50;99.90;;;;;;5110363;27;20495;-69
2022/03/31 02:11:22;;;;;;;8.45;3.28;;;3.50;99.90;;;;;;5128903;27;19980;-69
2022/03/31 02:13:48;;;;;;;3.78;3.25;;;3.50;99.90;;;;;;5113544;27;20146;-69
2022/03/31 02:16:14;;;;;;;6.38;2.95;;;3.50;99.90;;;;;;5115879;27;20035;-69
2022/03/31 02:18:40;;;;;;;6.05;3.47;;;3.50;99.90;;;;;;5112447;27;20055;-69
2022/03/31 02:21:06;;;;;;;5.30;3.42;;;3.50;99.90;;;;;;5087607;28;20487;-69
2022/03/31 02:23:31;;;;;;;3.97;2.80;;;3.60;99.90;;;;;;5090813;28;20039;-68
2022/03/31 02:25:57;;;;;;;5.38;2.53;;;3.50;99.90;;;;;;5109085;28;20134;-69
2022/03/31 02:28:23;;;;;;;4.60;3.30;;;3.50;99.90;;;;;;5093345;28;20079;-68
2022/03/31 02:30:48;;;;;;;3.80;3.30;;;3.50;99.90;;;;;;5097932;28;20285;-69
2022/03/31 02:33:14;;;;;;;4.95;3.50;;;3.50;99.90;;;;;;5104902;28;20042;-69
2022/03/31 02:35:40;;;;;;;6.35;3.88;;;3.50;99.90;;;;;;5089610;28;20032;-69
2022/03/31 02:38:05;;;;;;;4.97;3.80;;;3.50;99.90;;;;;;5110516;28;20407;-69
2022/03/31 02:40:31;;;;;;;6.85;3.90;;;3.50;99.90;;;;;;5107890;28;20161;-69
2022/03/31 02:42:57;;;;;;;4.55;4.07;;;3.50;99.90;;;;;;5088584;28;20039;-69
2022/03/31 02:45:22;;;;;;;4.72;3.70;;;3.40;99.90;;;;;;5101970;28;20048;-69
2022/03/31 02:47:48;;;;;;;5.68;4.05;;;3.40;99.90;;;;;;5092774;28;20169;-69
2022/03/31 02:50:17;;;;;;;5.35;4.45;;;3.40;99.90;;;;;;5095650;28;20086;-69
2022/03/31 02:55:34;;;;;;;5.40;3.60;;;3.40;99.90;;;;;;5080456;28;20482;-69
2022/03/31 02:58:02;;;;;;;7.53;5.00;;;3.40;99.90;;;;;;5107239;28;20050;-69
2022/03/31 03:00:30;;;;;;;7.68;5.28;;;3.40;99.90;;;;;;5093582;28;20396;-69
2022/03/31 03:02:57;;;;;;;8.15;5.78;;;3.30;99.90;;;;;;5093769;28;20052;-69
2022/03/31 03:05:23;;;;;;;5.60;5.00;;;3.30;99.90;;;;;;5107883;28;20384;-68
2022/03/31 03:07:48;;;;;;;6.22;4.85;;;3.30;99.90;;;;;;5091647;28;20051;-69
2022/03/31 03:10:14;;;;;;;5.10;3.88;;;3.30;99.90;;;;;;5100736;28;20036;-69
2022/03/31 03:12:41;;;;;;;3.92;3.05;;;3.10;99.90;;;;;;5078689;28;20039;-69
2022/03/31 03:15:07;;;;;;;;;;;3.20;99.90;;;;;;5110183;28;20040;-69
2022/03/31 03:17:33;;;;;;;4.72;3.70;;;3.10;99.90;;;;;;5074276;28;19923;-69
2022/03/31 03:19:59;;;;;;;6.43;5.72;;;3.00;99.90;;;;;;5089183;28;20055;-69
2022/03/31 03:22:26;;;;;;;8.18;6.80;;;3.00;99.90;;;;;;5092620;28;20146;-69
2022/03/31 03:24:52;;;;;;;11.25;8.50;;;3.20;99.90;;;;;;5106403;28;20042;-69
2022/03/31 03:27:18;;;;;;;11.73;9.35;;;3.10;99.90;;;;;;5102825;28;21116;-68
2022/03/31 03:29:46;;;;;;;13.27;8.97;;;3.10;99.90;;;;;;5101571;28;20456;-69
2022/03/31 03:32:14;;;;;;;9.35;7.90;;;3.00;99.90;;;;;;5107619;28;20048;-69
2022/03/31 03:34:39;;;;;;;6.85;6.13;;;2.90;99.90;;;;;;5092500;28;20043;-69
2022/03/31 03:37:06;;;;;;;5.30;4.80;;;3.00;99.90;;;;;;5108741;28;20040;-69
2022/03/31 03:39:34;;;;;;;3.92;3.53;;;3.00;99.90;;;;;;5092170;28;20035;-69
2022/03/31 03:42:01;;;;;;;3.40;3.08;;;2.90;99.90;;;;;;5105924;28;20478;-69
2022/03/31 03:44:27;;;;;;;3.30;2.70;;;2.80;99.90;;;;;;5084521;28;20075;-69
2022/03/31 03:46:53;;;;;;;3.05;2.75;;;2.70;99.90;;;;;;5101579;28;20082;-69
2022/03/31 03:49:19;;;;;;;2.80;2.50;;;2.80;99.90;;;;;;5104848;28;20075;-70
2022/03/31 03:51:45;;;;;;;2.38;2.00;;;2.80;99.90;;;;;;5109493;28;20047;-70
2022/03/31 03:54:11;;;;;;;2.63;2.08;;;2.70;99.90;;;;;;5107477;28;20509;-69
2022/03/31 03:56:38;;;;;;;2.38;2.10;;;2.70;99.90;;;;;;5108639;28;20040;-69
2022/03/31 03:59:04;;;;;;;2.22;2.03;;;2.80;99.90;;;;;;5108430;28;20039;-70
2022/03/31 04:01:30;;;;;;;2.75;2.55;;;2.70;99.90;;;;;;5106373;28;20044;-70
2022/03/31 04:03:57;;;;;;;3.20;2.90;;;2.70;99.90;;;;;;5100115;28;20119;-70
2022/03/31 04:06:23;;;;;;;4.10;3.40;;;2.70;99.90;;;;;;5101462;28;20044;-70
2022/03/31 04:08:48;;;;;;;3.20;2.67;;;2.70;99.90;;;;;;5105979;28;20035;-70
2022/03/31 04:11:14;;;;;;;4.63;3.30;;;2.60;99.90;;;;;;5105016;28;20044;-70
2022/03/31 04:13:40;;;;;;;4.07;3.22;;;2.60;99.90;;;;;;5101526;28;20082;-70
2022/03/31 04:16:06;;;;;;;3.05;2.75;;;2.60;99.90;;;;;;5111801;28;20390;-70
2022/03/31 04:18:32;;;;;;;3.10;2.80;;;2.60;99.90;;;;;;5113289;27;20055;-69
2022/03/31 04:21:01;;;;;;;3.78;2.83;;;2.60;99.90;;;;;;5113811;28;20054;-70
2022/03/31 04:23:28;;;;;;;2.90;2.60;;;2.60;99.90;;;;;;5130902;27;20058;-69
2022/03/31 04:25:53;;;;;;;3.65;2.55;;;2.60;99.90;;;;;;5115867;27;20123;-69
2022/03/31 04:28:19;;;;;;;5.45;2.55;;;2.40;99.90;;;;;;5116696;27;20096;-69
2022/03/31 04:30:45;;;;;;;3.40;2.30;;;2.60;99.90;;;;;;5107090;27;20054;-69
2022/03/31 04:33:11;;;;;;;2.97;2.30;;;2.60;99.90;;;;;;5107584;27;20039;-69
2022/03/31 04:35:36;;;;;;;3.80;2.30;;;2.30;99.90;;;;;;5114475;27;20384;-69
2022/03/31 04:38:03;;;;;;;3.42;2.25;;;2.50;99.90;;;;;;5110009;27;20039;-69
2022/03/31 04:40:29;;;;;;;4.38;2.17;;;2.40;99.90;;;;;;5125395;27;20514;-69
2022/03/31 04:42:55;;;;;;;4.30;2.90;;;2.40;99.90;;;;;;5108025;28;20070;-68
2022/03/31 04:45:21;;;;;;;5.80;3.30;;;2.20;99.90;;;;;;5127223;27;20066;-68
2022/03/31 04:47:47;;;;;;;4.80;3.17;;;2.40;99.90;;;;;;5132668;27;20043;-69
2022/03/31 04:50:14;;;;;;;3.42;2.92;;;2.40;99.90;;;;;;5114342;27;20423;-69
2022/03/31 04:52:41;;;;;;;3.65;2.63;;;2.40;99.90;;;;;;5116215;27;20035;-69
2022/03/31 04:55:07;;;;;;;3.70;2.50;;;2.40;99.90;;;;;;5122002;27;20046;-68
2022/03/31 04:57:33;;;;;;;3.10;2.17;;;2.20;99.90;;;;;;5098030;27;20036;-68
2022/03/31 04:59:59;;;;;;;3.45;2.30;;;2.30;99.90;;;;;;5117870;27;20069;-68
2022/03/31 05:02:25;;;;;;;3.08;2.20;;;2.30;99.90;;;;;;5118120;27;20336;-69
2022/03/31 05:04:51;;;;;;;3.58;2.33;;;2.20;99.90;;;;;;5101728;28;20050;-69
2022/03/31 05:07:17;;;;;;;2.75;2.47;;;2.40;99.90;;;;;;5117388;27;20367;-69
2022/03/31 05:09:43;;;;;;;3.03;2.25;;;2.30;99.90;;;;;;5124065;27;20045;-68
2022/03/31 05:12:09;;;;;;;3.75;2.60;;;2.50;99.90;;;;;;5118918;27;21022;-69
2022/03/31 05:14:35;;;;;;;3.20;2.30;;;2.50;99.90;;;;;;5123653;27;20042;-70
2022/03/31 05:17:01;;;;;;;3.53;2.63;;;2.50;99.90;;;;;;5126419;27;20121;-70
2022/03/31 05:19:27;;;;;;;4.53;2.33;;;2.40;99.90;;;;;;5126936;27;20070;-70
2022/03/31 05:21:53;;;;;;;4.55;2.60;;;2.40;99.90;;;;;;5086501;27;20424;-70
2022/03/31 05:24:19;;;;;;;3.05;2.50;;;2.40;99.90;;;;;;5103084;27;20142;-70
2022/03/31 05:26:45;;;;;;;3.20;2.80;;;2.60;99.90;;;;;;5120579;27;20107;-70
2022/03/31 05:29:13;;;;;;;;;;;2.50;99.90;;;;;;5083745;27;20043;-69
2022/03/31 05:31:39;;;;;;;2.90;2.50;;;2.60;99.90;;;;;;5124852;27;19942;-70
2022/03/31 05:34:05;;;;;;;2.78;2.50;;;2.50;99.90;;;;;;5115695;27;20552;-70
2022/03/31 05:36:31;;;;;;;2.40;2.20;;;2.60;99.90;;;;;;5116069;27;20083;-69
2022/03/31 05:38:56;;;;;;;2.60;2.40;;;2.50;99.90;;;;;;5080569;27;20035;-70
2022/03/31 05:41:25;;;;;;;5.28;3.63;;;2.50;99.90;;;;;;5130310;27;20043;-68
2022/03/31 05:43:51;;;;;;;2.95;2.65;;;2.50;99.90;;;;;;5132538;27;20035;-68
2022/03/31 05:46:17;;;;;;;3.10;2.80;;;2.70;99.90;;;;;;5127537;27;20042;-69
2022/03/31 05:48:43;;;;;;;3.28;2.88;;;2.70;99.90;;;;;;5097174;28;20410;-69
2022/03/31 05:51:08;;;;;;;3.10;2.80;;;2.50;99.90;;;;;;5095616;27;20163;-69
2022/03/31 05:53:34;;;;;;;3.50;3.20;;;2.60;99.90;;;;;;5114333;27;20093;-69
2022/03/31 05:56:00;;;;;;;3.10;2.80;;;2.60;99.90;;;;;;5112628;27;20130;-69
2022/03/31 05:58:26;;;;;;;4.13;3.70;;;2.70;99.90;;;;;;5084582;27;20043;-69
2022/03/31 06:00:53;;;;;;;3.95;3.65;;;2.60;99.90;;;;;;5102792;27;20051;-69
2022/03/31 06:03:22;;;;;;;4.20;3.80;;;2.60;99.90;;;;;;5127246;27;20047;-70
2022/03/31 06:05:51;;;;;;;4.20;3.80;;;2.60;99.90;;;;;;5093922;27;20080;-68
2022/03/31 06:08:17;;;;;;;5.15;4.65;;;2.60;99.90;;;;;;5123504;27;20043;-69
2022/03/31 06:10:46;;;;;;;4.60;4.20;;;2.70;99.90;;;;;;5121297;27;20050;-68
2022/03/31 06:13:12;;;;;;;4.50;4.10;;;2.70;99.90;;;;;;5113095;27;20109;-68
2022/03/31 06:15:39;;;;;;;4.25;3.85;;;2.60;99.90;;;;;;5101555;27;20051;-70
2022/03/31 06:18:06;;;;;;;;;;;2.70;99.90;;;;;;5127344;27;20070;-70
2022/03/31 06:20:34;;;;;;;4.25;3.85;;;2.60;99.90;;;;;;5117341;27;19932;-69
2022/03/31 06:23:03;;;;;;;4.25;3.85;;;2.60;99.90;;;;;;5110750;27;20130;-70
2022/03/31 06:25:29;;;;;;;3.95;3.65;;;2.70;99.90;;;;;;5112336;27;20491;-69
2022/03/31 06:27:56;;;;;;;4.38;3.97;;;2.60;99.90;;;;;;5100325;28;20394;-70
2022/03/31 06:30:22;;;;;;;;;;;2.60;99.90;;;;;;5103120;27;20521;-70
2022/03/31 06:32:49;;;;;;;3.65;3.35;;;2.70;99.90;;;;;;5122765;27;19954;-70
2022/03/31 06:35:15;;;;;;;;;;;2.60;99.90;;;;;;5120998;27;20471;-69
2022/03/31 06:37:43;;;;;;;4.30;3.90;;;2.60;99.90;;;;;;5125513;27;19926;-69
2022/03/31 06:40:14;;;;;;;4.00;3.70;;;2.70;99.90;;;;;;5110119;27;20050;-69
2022/03/31 06:42:41;;;;;;;5.13;4.60;;;2.60;99.90;;;;;;5112857;27;20044;-69
2022/03/31 06:45:14;;;;;;;5.82;5.30;;;2.60;99.90;;;;;;5109350;27;20114;-69
2022/03/31 06:47:39;;;;;;;5.28;4.78;;;2.80;99.90;;;;;;5123321;27;20111;-69
2022/03/31 06:50:06;;;;;;;4.95;4.50;;;2.80;99.90;;;;;;5123778;27;20122;-69
2022/03/31 06:52:31;;;;;;;;;;;2.70;99.90;;;;;;5112478;27;20047;-68
2022/03/31 06:54:57;;;;;;;5.53;5.03;;;2.70;99.90;;;;;;5118194;27;19919;-69
2022/03/31 06:57:23;;;;;;;5.05;4.55;;;2.80;99.90;;;;;;5121006;27;20696;-69
2022/03/31 06:59:50;;;;;;;5.95;5.43;;;2.70;99.90;;;;;;5103292;27;20032;-69
2022/03/31 07:02:15;;;;;;;6.40;5.80;;;2.80;99.90;;;;;;5113976;27;20044;-70
2022/03/31 07:04:41;;;;;;;6.05;5.45;;;2.70;99.90;;;;;;5123752;27;20046;-69
2022/03/31 07:07:07;;;;;;;5.57;5.07;;;2.70;99.90;;;;;;5109862;27;20035;-69
2022/03/31 07:09:33;;;;;;;5.68;5.18;;;2.80;99.90;;;;;;5127329;27;20051;-69
2022/03/31 07:11:59;;;;;;;4.43;4.03;;;2.80;99.90;;;;;;5096109;28;20057;-69
2022/03/31 07:14:24;;;;;;;4.78;4.25;;;2.80;99.90;;;;;;5117415;27;20039;-69
2022/03/31 07:16:50;;;;;;;5.20;4.70;;;2.90;99.90;;;;;;5119685;27;20499;-69
2022/03/31 07:19:16;;;;;;;5.57;4.82;;;2.70;99.90;;;;;;5117509;27;20452;-69
2022/03/31 07:21:41;;;;;;;5.28;4.78;;;2.80;99.90;;;;;;5094717;28;20501;-69
2022/03/31 07:24:07;;;;;;;5.50;5.00;;;2.90;99.90;;;;;;5116341;27;20073;-70
2022/03/31 07:26:33;;;;;;;6.72;6.13;;;2.80;99.90;;;;;;5111227;28;20392;-70
2022/03/31 07:28:58;;;;;;;6.72;6.13;;;2.80;99.90;;;;;;5123449;27;20062;-70
2022/03/31 07:31:28;;;;;;;6.70;6.00;;;2.80;99.90;;;;;;5121052;27;20515;-70
2022/03/31 07:33:54;;;;;;;6.90;6.20;;;3.00;99.90;;;;;;5125813;27;20123;-69
2022/03/31 07:36:19;;;;;;;6.45;5.85;;;3.00;99.90;;;;;;5122035;27;20114;-70
2022/03/31 07:38:45;;;;;;;6.70;5.95;;;2.90;99.90;;;;;;5123062;27;20135;-70
2022/03/31 07:41:12;;;;;;;6.35;5.75;;;3.00;99.90;;;;;;5094048;28;20043;-69
2022/03/31 07:43:38;;;;;;;7.55;6.40;;;2.90;99.90;;;;;;5122461;28;20031;-69
2022/03/31 07:46:05;;;;;;;7.53;6.82;;;2.90;99.90;;;;;;5093377;28;20051;-69
2022/03/31 07:48:31;;;;;;;6.75;6.10;;;3.10;99.90;;;;;;5110869;28;20498;-69
2022/03/31 07:50:59;;;;;;;6.05;5.45;;;3.00;99.90;;;;;;5096802;28;20038;-71
2022/03/31 07:53:32;;;;;;;7.18;6.47;;;3.00;99.90;;;;;;5091584;28;20081;-69
2022/03/31 07:56:00;;;;;;;6.78;6.07;;;3.10;99.90;;;;;;5111874;28;20036;-69
2022/03/31 07:58:25;;;;;;;6.38;5.78;;;3.10;99.90;;;;;;5123592;28;20055;-69
2022/03/31 08:00:52;;;;;;;6.82;6.13;;;3.00;99.90;;;;;;5124925;28;20031;-69
2022/03/31 08:03:18;;;;;;;6.10;5.50;;;3.00;99.90;;;;;;5099543;28;20039;-70
2022/03/31 08:05:45;;;;;;;6.30;5.70;;;2.90;99.90;;;;;;5113949;28;20035;-69
2022/03/31 08:08:12;;;;;;;6.32;5.65;;;2.80;99.90;;;;;;5127396;28;20406;-69
2022/03/31 08:10:38;;;;;;;6.47;5.82;;;2.80;99.90;;;;;;5124856;28;20043;-69
2022/03/31 08:13:04;;;;;;;6.40;5.80;;;2.90;99.90;;;;;;5111417;28;20043;-68
2022/03/31 08:15:30;;;;;;;6.40;5.70;;;2.70;99.90;;;;;;5109968;28;20052;-68
2022/03/31 08:17:57;;;;;;;5.90;5.30;;;2.70;99.90;;;;;;5126068;28;20145;-70
2022/03/31 08:20:23;;;;;;;6.07;5.45;;;2.60;99.90;;;;;;5115650;28;20518;-70
2022/03/31 08:22:49;;;;;;;6.20;5.60;;;2.70;99.90;;;;;;5115307;28;20047;-69
2022/03/31 08:25:15;;;;;;;7.47;6.53;;;2.70;99.90;;;;;;5117376;27;20277;-69
2022/03/31 08:27:42;;;;;;;7.72;6.93;;;2.80;99.90;;;;;;5126100;28;20997;-70
2022/03/31 08:30:13;;;;;;;6.80;6.10;;;2.70;99.90;;;;;;5112055;28;20051;-70
2022/03/31 08:32:42;;;;;;;7.15;6.45;;;2.60;99.90;;;;;;5116141;28;20443;-69
2022/03/31 08:35:08;;;;;;;7.38;6.57;;;2.60;99.90;;;;;;5115234;28;20088;-70
2022/03/31 08:37:35;;;;;;;7.00;6.30;;;2.70;99.90;;;;;;5118523;28;20039;-70
2022/03/31 08:40:01;;;;;;;7.03;6.32;;;2.70;99.90;;;;;;5100512;28;20117;-68
2022/03/31 08:42:27;;;;;;;8.38;6.93;;;2.70;99.90;;;;;;5103193;28;20431;-69
2022/03/31 08:44:56;;;;;;;8.10;7.05;;;2.60;99.90;;;;;;5121362;27;20141;-69
2022/03/31 08:47:22;;;;;;;7.22;6.53;;;2.50;99.90;;;;;;5120495;28;20043;-69
2022/03/31 08:49:48;;;;;;;8.83;7.53;;;2.50;99.90;;;;;;5125037;28;20409;-69
2022/03/31 08:52:14;;;;;;;9.68;7.78;;;2.80;99.90;;;;;;5127476;27;20273;-69
2022/03/31 08:54:40;;;;;;;10.25;8.45;;;2.60;99.90;;;;;;5122013;27;20479;-69
2022/03/31 08:57:06;;;;;;;11.25;9.10;;;2.60;99.90;;;;;;5100293;27;20035;-69
2022/03/31 08:59:32;;;;;;;9.73;8.60;;;2.60;99.90;;;;;;5117304;27;20047;-69
2022/03/31 09:01:58;;;;;;;10.57;8.90;;;2.50;99.90;;;;;;5117515;27;20039;-69
2022/03/31 09:04:26;;;;;;;11.70;9.38;;;2.70;99.90;;;;;;5120375;27;20031;-69
2022/03/31 09:07:08;;;;;;;11.32;9.18;;;2.60;99.90;;;;;;5100696;27;20110;-70
2022/03/31 09:09:45;;;;;;;11.45;9.55;;;2.60;99.90;;;;;;5126163;27;20049;-70
2022/03/31 09:12:11;;;;;;;11.82;9.35;;;2.50;99.90;;;;;;5116193;27;20039;-69
2022/03/31 09:14:36;;;;;;;9.93;8.43;;;2.40;99.90;;;;;;5110290;27;20099;-70
2022/03/31 09:17:15;;;;;;;9.23;7.77;;;2.40;99.90;;;;;;5118573;27;20403;-70
2022/03/31 09:19:41;;;;;;;7.82;6.70;;;2.20;99.90;;;;;;5123495;27;20387;-70
2022/03/31 09:22:08;;;;;;;10.23;7.05;;;2.30;99.90;;;;;;5124070;27;20119;-70
2022/03/31 09:24:33;;;;;;;;;;;2.00;99.90;;;;;;5113665;27;20470;-70
2022/03/31 09:27:01;;;;;;;8.73;6.40;;;2.10;99.90;;;;;;5123522;27;19911;-69
2022/03/31 09:29:29;;;;;;;6.85;6.00;;;1.80;99.90;;;;;;5119546;27;20047;-70
2022/03/31 09:32:15;;;;;;;6.80;5.75;;;1.70;99.90;;;;;;5121433;27;20126;-70
2022/03/31 09:34:43;;;;;;;5.70;5.10;;;1.60;99.90;;;;;;5108196;27;20078;-70
2022/03/31 09:37:10;;;;;;;5.95;4.93;;;1.50;99.90;;;;;;5122471;27;20039;-70
2022/03/31 09:39:36;;;;;;;7.22;5.50;;;1.70;99.90;;;;;;5121394;27;20035;-69
2022/03/31 09:42:12;;;;;;;5.57;5.07;;;1.50;99.90;;;;;;5119911;27;20043;-69
2022/03/31 09:44:39;;;;;;;4.82;4.32;;;1.80;99.90;;;;;;5128537;27;20501;-68
2022/03/31 09:47:04;;;;;;;5.57;4.95;;;1.60;99.90;;;;;;5118216;27;20039;-69
2022/03/31 09:49:30;;;;;;;5.13;4.47;;;1.60;99.90;;;;;;5119829;27;20620;-70
2022/03/31 09:52:02;;;;;;;5.57;4.43;;;1.50;99.90;;;;;;5095316;28;20044;-70
2022/03/31 09:54:30;;;;;;;5.25;4.75;;;1.40;99.90;;;;;;5128035;27;20054;-70
2022/03/31 09:56:58;;;;;;;6.00;5.40;;;1.50;99.90;;;;;;5125469;27;20454;-70
2022/03/31 09:59:38;;;;;;;6.13;5.35;;;1.40;99.90;;;;;;5118922;27;20563;-70
2022/03/31 10:02:04;;;;;;;7.32;6.03;;;1.50;99.90;;;;;;5123344;27;20046;-69
2022/03/31 10:04:31;;;;;;;6.53;5.80;;;1.30;99.90;;;;;;5130376;27;20043;-69
2022/03/31 10:06:58;;;;;;;6.53;5.82;;;1.30;99.90;;;;;;5127715;27;20144;-69
2022/03/31 10:09:24;;;;;;;6.70;5.40;;;1.30;99.90;;;;;;5110061;27;20385;-69
2022/03/31 10:12:05;;;;;;;6.15;5.38;;;1.50;99.90;;;;;;5123995;27;20611;-69
2022/03/31 10:15:00;;;;;;;6.50;5.55;;;1.30;99.90;;;;;;5123491;27;21536;-70
2022/03/31 10:17:28;;;;;;;5.75;5.15;;;1.50;99.90;;;;;;5102526;27;20487;-69
2022/03/31 10:19:54;;;;;;;7.60;6.00;;;1.20;99.90;;;;;;5088356;28;20097;-69
2022/03/31 10:25:12;;;;;;;7.22;5.60;;;1.40;99.90;;;;;;5088335;28;20074;-69
2022/03/31 10:27:45;;;;;;;6.78;5.97;;;1.10;99.90;;;;;;5104482;28;20039;-69
2022/03/31 10:30:17;;;;;;;7.15;5.57;;;1.10;99.90;;;;;;5107509;28;20047;-70
2022/03/31 10:33:04;;;;;;;6.93;5.72;;;1.40;99.90;;;;;;5099237;28;20051;-70
2022/03/31 10:35:36;;;;;;;7.10;4.90;;;1.10;99.90;;;;;;5107336;28;20105;-70
2022/03/31 10:38:17;;;;;;;5.72;4.90;;;1.10;99.90;;;;;;5104116;28;20419;-70
2022/03/31 10:40:45;;;;;;;5.70;5.07;;;1.20;99.90;;;;;;5105800;28;20048;-70
2022/03/31 10:43:29;;;;;;;5.07;4.57;;;1.20;99.90;;;;;;5099034;28;20118;-70
2022/03/31 10:45:57;;;;;;;5.47;4.75;;;1.40;99.90;;;;;;5075251;28;20032;-70
2022/03/31 10:48:28;;;;;;;5.70;4.78;;;1.20;99.90;;;;;;5080188;28;20475;-70
2022/03/31 10:51:00;;;;;;;5.43;4.72;;;1.40;99.90;;;;;;5090593;28;20105;-70
2022/03/31 10:53:30;;;;;;;5.60;4.53;;;1.10;99.90;;;;;;5108518;28;20035;-70
2022/03/31 10:55:57;;;;;;;5.03;4.47;;;1.40;99.90;;;;;;5086340;28;20043;-71
2022/03/31 10:58:27;;;;;;;;;;;1.20;99.90;;;;;;5091832;28;20040;-70
2022/03/31 11:00:58;;;;;;;5.82;4.90;;;1.40;99.90;;;;;;5098733;28;19923;-69
2022/03/31 11:03:24;;;;;;;4.97;4.47;;;1.40;99.90;;;;;;5084230;28;20103;-70
2022/03/31 11:05:50;;;;;;;5.57;4.50;;;1.20;99.90;;;;;;5101096;28;20039;-70
2022/03/31 11:08:17;;;;;;;4.95;4.10;;;1.40;99.90;;;;;;5079128;28;20135;-70
2022/03/31 11:10:55;;;;;;;6.20;5.10;;;1.40;99.90;;;;;;5109398;28;20052;-70
2022/03/31 11:13:35;;;;;;;6.30;4.97;;;1.30;99.90;;;;;;5089792;28;20054;-70
2022/03/31 11:16:01;;;;;;;6.60;4.97;;;1.40;99.90;;;;;;5090322;28;20043;-70
2022/03/31 11:18:27;;;;;;;6.15;5.05;;;1.10;99.90;;;;;;5107661;28;20048;-70
2022/03/31 11:20:56;;;;;;;5.28;4.50;;;1.10;99.90;;;;;;5098084;27;20375;-70
2022/03/31 11:23:23;;;;;;;4.95;4.45;;;1.30;99.90;;;;;;5114030;27;20042;-70
2022/03/31 11:25:49;;;;;;;4.80;4.32;;;1.10;99.90;;;;;;5131537;27;20042;-71
2022/03/31 11:28:15;;;;;;;5.45;4.50;;;1.20;99.90;;;;;;5125783;27;20046;-71
2022/03/31 11:30:43;;;;;;;5.07;4.57;;;1.20;99.90;;;;;;5129504;27;20051;-70
2022/03/31 11:33:10;;;;;;;5.20;4.70;;;1.30;99.90;;;;;;5141278;27;20077;-70
2022/03/31 11:35:37;;;;;;;4.90;4.40;;;1.20;99.90;;;;;;5129023;27;20043;-70
2022/03/31 11:38:08;;;;;;;5.60;4.80;;;0.90;99.90;;;;;;5105637;27;20043;-70
2022/03/31 11:40:41;;;;;;;5.20;4.63;;;1.00;99.90;;;;;;5118412;28;20035;-70
2022/03/31 11:43:09;;;;;;;5.00;4.50;;;1.20;99.90;;;;;;5113706;27;20071;-69
2022/03/31 11:45:36;;;;;;;5.03;4.47;;;1.10;99.90;;;;;;5098665;27;20042;-69
2022/03/31 11:48:09;;;;;;;5.90;5.15;;;1.00;99.90;;;;;;5127854;27;20149;-70
2022/03/31 11:50:37;;;;;;;6.63;5.10;;;0.90;99.90;;;;;;5130405;27;20137;-70
2022/03/31 11:53:15;;;;;;;5.85;5.05;;;0.80;99.90;;;;;;5124860;28;20105;-70
2022/03/31 11:55:41;;;;;;;6.15;5.22;;;0.80;99.90;;;;;;5119389;27;20039;-70
2022/03/31 11:58:08;;;;;;;5.75;4.97;;;0.80;99.90;;;;;;5109024;27;20054;-70
2022/03/31 12:00:34;;;;;;;5.55;4.82;;;0.80;99.90;;;;;;5110009;27;20035;-70
2022/03/31 12:03:09;;;;;;;6.03;4.72;;;0.80;99.90;;;;;;5098659;28;20431;-70
2022/03/31 12:05:35;;;;;;;5.10;4.60;;;0.80;99.90;;;;;;5108314;27;20043;-70
2022/03/31 12:08:01;;;;;;;5.82;4.97;;;1.00;99.90;;;;;;5120585;27;20039;-70
2022/03/31 12:10:29;;;;;;;6.00;4.93;;;0.80;99.90;;;;;;5125594;27;20463;-70
2022/03/31 12:12:56;;;;;;;6.70;4.85;;;1.00;99.90;;;;;;5122094;27;20074;-70
2022/03/31 12:15:25;;;;;;;6.28;5.03;;;0.80;99.90;;;;;;5118773;27;20178;-70
2022/03/31 12:18:11;;;;;;;5.32;4.57;;;1.10;99.90;;;;;;5121963;27;20035;-70
2022/03/31 12:20:37;;;;;;;5.70;5.10;;;1.10;99.90;;;;;;5105295;28;20343;-69
2022/03/31 12:23:22;;;;;;;7.65;5.07;;;0.80;99.90;;;;;;5117639;28;20066;-69
2022/03/31 12:25:48;;;;;;;6.60;5.82;;;0.80;99.90;;;;;;5096551;28;20083;-70
2022/03/31 12:28:14;;;;;;;;;;;1.10;99.90;;;;;;5124271;27;20114;-70
2022/03/31 12:30:47;;;;;;;6.60;5.88;;;1.10;99.90;;;;;;5114414;27;19919;-70
2022/03/31 12:33:25;;;;;;;7.25;6.03;;;1.00;99.90;;;;;;5131290;27;20066;-70
2022/03/31 12:36:03;;;;;;;7.43;6.13;;;0.90;99.90;;;;;;5119943;27;20043;-72
2022/03/31 12:38:48;;;;;;;7.85;6.53;;;1.00;99.90;;;;;;5127220;27;20035;-70
2022/03/31 12:41:33;;;;;;;7.68;6.30;;;0.90;99.90;;;;;;5108773;27;20091;-70
2022/03/31 12:44:09;;;;;;;7.97;7.18;;;1.20;99.90;;;;;;5132351;27;20058;-70
2022/03/31 12:46:38;;;;;;;8.27;7.15;;;0.90;99.90;;;;;;5122021;27;20363;-72
2022/03/31 12:49:12;;;;;;;7.60;6.80;;;1.20;99.90;;;;;;5112561;28;20169;-70
2022/03/31 12:51:53;;;;;;;8.18;7.15;;;1.20;99.90;;;;;;5116204;27;20481;-68
2022/03/31 12:54:36;;;;;;;8.30;7.43;;;0.90;99.90;;;;;;5118831;27;20478;-68
2022/03/31 12:57:06;;;;;;;8.30;7.45;;;0.90;99.90;;;;;;5118630;27;20044;-69
2022/03/31 12:59:33;;;;;;;8.63;7.40;;;1.10;99.90;;;;;;5123651;27;20044;-70
2022/03/31 13:02:00;;;;;;;8.90;7.47;;;0.90;99.90;;;;;;5127809;27;20074;-69
2022/03/31 13:04:27;;;;;;;8.23;7.32;;;1.10;99.90;;;;;;5124058;27;20038;-69
2022/03/31 13:06:54;;;;;;;;;;;1.20;99.90;;;;;;5131086;27;20042;-69
2022/03/31 13:09:20;;;;;;;8.70;7.43;;;1.20;99.90;;;;;;5116797;27;19935;-70